Time;durP1;ratioP1;P1;durP2;ratioP2;P2;SDS_P1;SDS_P2;PMS_P1;PMS_P2;Temp;Humidity;BMP_temperature;BMP_pressure;BME280_temperature;BME280_humidity;BME280_pressure;Samples;Min_cycle;Max_cycle;Signal;HPM_P1;HPM_P2
2022/12/27 00:01:43;;;;;;;0.00;0.00;;;;;;;8.20;100.00;96025.13;4332496;32;20242;-57
2022/12/27 00:04:09;;;;;;;0.17;0.17;;;;;;;8.12;100.00;96033.56;4331830;32;20268;-56
2022/12/27 00:06:35;;;;;;;0.10;0.10;;;;;;;8.09;100.00;96023.53;4335638;32;20228;-57
2022/12/27 00:09:01;;;;;;;0.00;0.00;;;;;;;8.00;100.00;96036.44;4341367;32;20262;-58
2022/12/27 00:11:30;;;;;;;0.13;0.13;;;;;;;8.03;100.00;96038.56;4344935;32;20178;-57
2022/12/27 00:14:01;;;;;;;0.00;0.00;;;;;;;8.08;100.00;96032.50;4343822;32;20324;-57
2022/12/27 00:16:27;;;;;;;0.00;0.00;;;;;;;8.03;100.00;96030.63;4328183;32;20275;-58
2022/12/27 00:18:52;;;;;;;0.00;0.00;;;;;;;8.00;100.00;96039.06;4330431;32;20291;-56
2022/12/27 00:21:20;;;;;;;4.03;0.30;;;;;;;8.02;100.00;96046.75;4319193;33;20173;-55
2022/12/27 00:23:48;;;;;;;0.00;0.00;;;;;;;7.95;99.95;96046.97;4323971;32;20174;-58
2022/12/27 00:26:16;;;;;;;0.00;0.00;;;;;;;7.97;99.59;96050.16;4336989;32;20309;-55
2022/12/27 00:28:43;;;;;;;0.37;0.37;;;;;;;7.99;99.67;96061.25;4336242;32;20263;-57
2022/12/27 00:31:09;;;;;;;0.00;0.00;;;;;;;8.01;99.96;96055.72;4334494;32;20273;-57
2022/12/27 00:33:36;;;;;;;0.00;0.00;;;;;;;8.00;99.52;96059.41;4332217;32;20274;-55
2022/12/27 00:36:03;;;;;;;0.00;0.00;;;;;;;7.93;99.58;96075.50;4341578;32;20270;-58
2022/12/27 00:38:29;;;;;;;0.10;0.10;;;;;;;8.07;98.72;96078.47;4332787;32;20288;-56
2022/12/27 00:40:54;;;;;;;0.10;0.10;;;;;;;8.02;99.18;96087.19;4317244;33;20286;-57
2022/12/27 00:43:20;;;;;;;0.10;0.10;;;;;;;8.04;98.95;96092.19;4321450;33;20294;-58
2022/12/27 00:45:46;;;;;;;0.10;0.10;;;;;;;8.12;98.65;96099.63;4335770;33;20212;-57
2022/12/27 00:48:12;;;;;;;0.00;0.00;;;;;;;8.05;98.66;96109.66;4336011;32;20199;-57
2022/12/27 00:50:41;;;;;;;0.00;0.00;;;;;;;8.06;98.85;96106.75;4331544;32;20278;-58
2022/12/27 00:53:07;;;;;;;0.00;0.00;;;;;;;8.14;98.28;96118.66;4328270;33;20178;-58
2022/12/27 00:55:33;;;;;;;0.00;0.00;;;;;;;8.15;97.53;96113.13;4328261;33;20385;-57
2022/12/27 00:57:58;;;;;;;0.00;0.00;;;;;;;8.04;94.87;96129.19;4314022;33;20271;-56
2022/12/27 01:00:23;;;;;;;0.13;0.13;;;;;;;7.96;94.28;96127.81;4328642;33;20181;-58
2022/12/27 01:02:49;;;;;;;0.00;0.00;;;;;;;7.88;92.06;96123.03;4331614;33;20269;-58
2022/12/27 01:05:15;;;;;;;2.13;0.20;;;;;;;7.79;93.37;96116.63;4336202;32;20197;-58
2022/12/27 01:07:40;;;;;;;0.00;0.00;;;;;;;7.72;93.00;96129.25;4328643;33;20177;-55
2022/12/27 01:10:06;;;;;;;0.07;0.07;;;;;;;7.71;91.42;96133.75;4314878;33;20189;-58
2022/12/27 01:12:31;;;;;;;0.03;0.03;;;;;;;7.50;92.29;96153.94;4328255;33;20182;-56
2022/12/27 01:14:57;;;;;;;0.10;0.10;;;;;;;7.56;91.62;96150.28;4315487;32;20186;-58
2022/12/27 01:17:22;;;;;;;0.00;0.00;;;;;;;7.53;91.29;96153.44;4331573;33;20177;-58
2022/12/27 01:19:47;;;;;;;0.23;0.23;;;;;;;7.51;90.85;96146.81;4317372;33;20257;-58
2022/12/27 01:22:12;;;;;;;0.00;0.00;;;;;;;7.50;91.48;96146.00;4331584;32;20210;-58
2022/12/27 01:24:38;;;;;;;0.00;0.00;;;;;;;7.27;91.43;96162.22;4332064;32;20201;-58
2022/12/27 01:27:03;;;;;;;0.20;0.20;;;;;;;7.26;91.38;96168.53;4327078;33;20212;-58
2022/12/27 01:29:28;;;;;;;0.00;0.00;;;;;;;7.33;91.25;96173.59;4328470;32;20182;-58
2022/12/27 01:31:54;;;;;;;0.33;0.33;;;;;;;7.38;90.59;96177.09;4330632;32;20173;-58
2022/12/27 01:34:19;;;;;;;0.20;0.20;;;;;;;7.41;89.48;96183.69;4330442;32;20320;-58
2022/12/27 01:36:44;;;;;;;0.00;0.00;;;;;;;7.34;89.80;96191.03;4329368;32;20264;-58
2022/12/27 01:39:12;;;;;;;0.13;0.13;;;;;;;7.37;88.88;96193.16;4344304;32;20189;-58
2022/12/27 01:44:36;;;;;;;0.40;0.40;;;;;;;7.37;88.92;96198.44;4345363;32;20284;-58
2022/12/27 01:47:03;;;;;;;0.00;0.00;;;;;;;7.23;89.70;96203.34;4321143;32;20266;-57
2022/12/27 01:49:29;;;;;;;0.00;0.00;;;;;;;7.29;88.55;96202.31;4334411;32;20417;-57
2022/12/27 01:51:54;;;;;;;0.07;0.07;;;;;;;7.29;88.29;96210.25;4310037;33;20287;-58
2022/12/27 01:54:19;;;;;;;0.20;0.20;;;;;;;7.10;89.91;96206.37;4327064;33;20265;-58
2022/12/27 01:56:45;;;;;;;0.53;0.47;;;;;;;7.18;88.33;96211.22;4330447;32;20186;-57
2022/12/27 01:59:12;;;;;;;0.10;0.10;;;;;;;7.12;88.58;96206.91;4345630;32;20196;-58
2022/12/27 02:01:44;;;;;;;0.10;0.10;;;;;;;7.10;88.67;96216.91;4331517;32;20178;-56
2022/12/27 02:04:14;;;;;;;0.40;0.20;;;;;;;7.10;89.39;96216.91;4345393;32;20308;-56
2022/12/27 02:06:40;;;;;;;0.13;0.13;;;;;;;7.07;87.97;96214.78;4330912;32;20293;-57
2022/12/27 02:09:23;;;;;;;0.07;0.07;;;;;;;7.03;88.92;96224.25;4331489;32;20278;-56
2022/12/27 02:11:55;;;;;;;0.00;0.00;;;;;;;7.00;88.63;96230.03;4345457;32;20312;-59
2022/12/27 02:14:28;;;;;;;0.10;0.10;;;;;;;6.88;89.00;96228.31;4332338;32;20424;-57
2022/12/27 02:16:57;;;;;;;0.00;0.00;;;;;;;7.03;90.55;96224.25;4325712;32;20274;-58
2022/12/27 02:19:40;;;;;;;0.83;0.40;;;;;;;7.12;89.93;96225.38;4342808;32;20348;-58
2022/12/27 02:22:27;;;;;;;0.20;0.20;;;;;;;7.12;88.69;96223.53;4343189;32;20292;-58
2022/12/27 02:25:13;;;;;;;0.00;0.00;;;;;;;7.07;89.31;96225.31;4340581;32;20357;-58
2022/12/27 02:27:41;;;;;;;0.03;0.03;;;;;;;7.09;88.29;96224.03;4328363;32;20278;-57
2022/12/27 02:30:09;;;;;;;0.00;0.00;;;;;;;7.06;89.52;96227.19;4321458;32;20281;-58
2022/12/27 02:32:39;;;;;;;0.40;0.40;;;;;;;7.10;89.57;96224.84;4338733;32;20310;-58
2022/12/27 02:35:30;;;;;;;0.17;0.17;;;;;;;7.04;90.03;96231.91;4338301;32;20277;-58
2022/12/27 02:38:21;;;;;;;0.10;0.10;;;;;;;7.12;89.19;96238.56;4329001;33;20304;-58
2022/12/27 02:53:03;;;;;;;0.50;0.50;;;;;;;7.33;89.34;96250.13;4324229;33;20316;-56
2022/12/27 02:58:58;;;;;;;0.00;0.00;;;;;;;7.05;89.60;96262.53;4329817;33;20312;-58
2022/12/27 03:04:48;;;;;;;0.20;0.20;;;;;;;7.08;88.84;96277.03;4325458;32;20300;-58
2022/12/27 03:07:21;;;;;;;3.30;0.40;;;;;;;6.75;89.13;96276.16;4328286;32;20323;-57
2022/12/27 03:16:10;;;;;;;0.50;0.50;;;;;;;6.68;89.63;96293.97;4329583;33;20285;-55
2022/12/27 03:19:02;;;;;;;0.10;0.10;;;;;;;6.55;87.45;96291.72;4318382;32;20269;-57
2022/12/27 03:27:16;;;;;;;0.20;0.13;;;;;;;6.64;85.31;96316.62;4343202;32;20309;-58
2022/12/27 03:35:20;;;;;;;0.00;0.00;;;;;;;6.54;84.34;96333.09;4339671;32;20293;-58
2022/12/27 03:38:03;;;;;;;0.10;0.10;;;;;;;6.60;85.40;96339.22;4341091;32;20385;-57
2022/12/27 03:40:33;;;;;;;0.00;0.00;;;;;;;6.62;83.98;96339.78;4341805;32;20286;-55
2022/12/27 03:43:11;;;;;;;0.10;0.10;;;;;;;6.45;84.58;96342.44;4329803;33;20279;-56
2022/12/27 03:49:04;;;;;;;0.00;0.00;;;;;;;6.42;85.47;96360.59;4344150;32;20364;-57
2022/12/27 03:51:35;;;;;;;0.73;0.27;;;;;;;6.54;85.16;96379.72;4339392;32;20287;-55
2022/12/27 03:54:11;;;;;;;0.37;0.37;;;;;;;6.41;84.58;96369.53;4342772;32;20273;-59
2022/12/27 03:56:37;;;;;;;0.00;0.00;;;;;;;6.43;84.52;96378.78;4344208;32;20338;-57
2022/12/27 03:59:04;;;;;;;0.10;0.10;;;;;;;6.40;84.87;96389.81;4344146;32;20299;-55
2022/12/27 04:01:29;;;;;;;0.00;0.00;;;;;;;6.36;84.34;96393.97;4345059;32;20304;-56
2022/12/27 04:03:54;;;;;;;0.00;0.00;;;;;;;6.28;84.73;96406.72;4330546;32;20305;-56
2022/12/27 04:06:20;;;;;;;0.00;0.00;;;;;;;6.41;85.46;96406.41;4342685;32;20287;-57
2022/12/27 04:36:03;;;;;;;0.00;0.00;;;;;;;5.95;83.01;96439.88;4328756;32;20300;-57
2022/12/27 04:38:28;;;;;;;0.17;0.17;;;;;;;5.92;79.34;96450.09;4331108;33;20294;-57
2022/12/27 04:54:55;;;;;;;0.40;0.40;;;;;;;5.61;75.52;96464.50;4347145;32;20361;-57
2022/12/27 04:57:21;;;;;;;0.50;0.50;;;;;;;5.66;76.28;96473.25;4346676;32;20274;-57
2022/12/27 05:02:30;;;;;;;0.00;0.00;;;;;;;5.72;76.17;96477.59;4337833;32;20228;-57
2022/12/27 05:04:56;;;;;;;0.30;0.30;;;;;;;5.80;75.32;96479.87;4345929;32;20278;-57
2022/12/27 05:15:33;;;;;;;0.00;0.00;;;;;;;5.95;74.57;96495.19;4345143;32;20367;-58
2022/12/27 05:18:00;;;;;;;0.33;0.33;;;;;;;5.86;74.62;96504.44;4334667;32;20274;-58
2022/12/27 05:20:25;;;;;;;0.00;0.00;;;;;;;6.04;74.51;96516.66;4341078;32;20177;-56
2022/12/27 05:25:40;;;;;;;0.00;0.00;;;;;;;5.91;75.62;96527.50;4329858;33;20235;-58
2022/12/27 05:28:08;;;;;;;0.13;0.13;;;;;;;5.86;75.09;96522.88;4324538;32;20265;-57
2022/12/27 05:30:35;;;;;;;0.00;0.00;;;;;;;5.81;73.94;96530.69;4340630;32;20282;-58
2022/12/27 05:33:02;;;;;;;0.00;0.00;;;;;;;6.06;72.82;96523.31;4345764;32;20281;-65
2022/12/27 05:35:28;;;;;;;0.03;0.03;;;;;;;5.87;73.57;96537.66;4340880;32;20302;-59
2022/12/27 05:37:54;;;;;;;0.20;0.20;;;;;;;6.03;73.61;96531.66;4344482;32;20300;-58
2022/12/27 05:40:21;;;;;;;0.00;0.00;;;;;;;6.05;72.42;96534.06;4324155;33;20270;-57
2022/12/27 05:42:46;;;;;;;0.37;0.20;;;;;;;5.86;72.23;96542.13;4337722;32;20282;-58
2022/12/27 05:45:13;;;;;;;0.00;0.00;;;;;;;5.90;72.65;96557.47;4327955;33;20292;-58
2022/12/27 05:47:38;;;;;;;0.37;0.37;;;;;;;5.78;72.57;96554.88;4339036;32;20188;-57
2022/12/27 05:50:04;;;;;;;0.00;0.00;;;;;;;5.70;72.08;96563.09;4345955;32;20317;-58
2022/12/27 05:52:30;;;;;;;0.13;0.13;;;;;;;5.77;71.48;96563.78;4340700;32;20174;-57
2022/12/27 05:54:55;;;;;;;0.00;0.00;;;;;;;5.77;71.14;96553.25;4330118;33;20290;-56
2022/12/27 05:57:20;;;;;;;0.03;0.03;;;;;;;5.61;71.78;96551.34;4331108;33;20265;-57
2022/12/27 05:59:46;;;;;;;0.20;0.20;;;;;;;5.30;71.81;96555.13;4330549;33;20200;-57
2022/12/27 06:02:11;;;;;;;0.00;0.00;;;;;;;5.36;72.25;96555.03;4330098;33;20203;-58
2022/12/27 06:04:36;;;;;;;0.20;0.20;;;;;;;5.42;71.22;96556.72;4330494;33;20241;-58
2022/12/27 06:07:02;;;;;;;1.33;0.40;;;;;;;5.52;72.32;96558.78;4311268;33;20174;-59
2022/12/27 06:09:27;;;;;;;0.30;0.30;;;;;;;5.46;72.31;96557.06;4315685;33;20197;-58
2022/12/27 06:11:52;;;;;;;0.10;0.10;;;;;;;5.44;71.66;96554.66;4337780;32;20182;-57
2022/12/27 06:14:18;;;;;;;2.10;0.67;;;;;;;5.40;72.13;96547.47;4316495;32;20195;-57
2022/12/27 06:16:43;;;;;;;0.00;0.00;;;;;;;5.55;72.27;96552.25;4320534;33;20211;-58
2022/12/27 06:19:08;;;;;;;0.00;0.00;;;;;;;5.48;72.00;96552.38;4345746;32;20243;-57
2022/12/27 06:21:34;;;;;;;0.00;0.00;;;;;;;5.31;72.67;96554.09;4360213;32;20277;-57
2022/12/27 06:23:59;;;;;;;0.10;0.10;;;;;;;5.49;72.62;96551.34;4330089;32;20205;-58
2022/12/27 06:26:27;;;;;;;0.00;0.00;;;;;;;5.35;73.31;96550.78;4330872;33;20179;-58
2022/12/27 06:28:54;;;;;;;0.10;0.10;;;;;;;5.41;73.79;96546.41;4330441;33;20293;-58
2022/12/27 06:31:20;;;;;;;0.00;0.00;;;;;;;5.53;74.42;96550.66;4328519;32;20277;-58
2022/12/27 06:33:46;;;;;;;0.83;0.20;;;;;;;5.52;74.39;96550.88;4330305;32;20366;-58
2022/12/27 06:36:14;;;;;;;0.00;0.00;;;;;;;5.42;75.44;96561.97;4328521;32;20289;-58
2022/12/27 06:38:40;;;;;;;0.30;0.30;;;;;;;5.44;75.16;96552.03;4338334;32;20269;-59
2022/12/27 06:41:11;;;;;;;0.40;0.40;;;;;;;5.28;76.54;96550.09;4344025;32;20315;-57
2022/12/27 06:43:36;;;;;;;0.20;0.20;;;;;;;5.32;77.51;96551.25;4325098;32;20197;-57
2022/12/27 06:46:05;;;;;;;0.00;0.00;;;;;;;5.48;77.28;96550.53;4340598;32;20282;-64
2022/12/27 06:48:30;;;;;;;2.07;0.53;;;;;;;5.41;78.22;96546.41;4340006;32;20222;-58
2022/12/27 06:50:56;;;;;;;0.23;0.23;;;;;;;5.47;78.22;96554.19;4340522;32;20297;-58
2022/12/27 06:53:21;;;;;;;0.10;0.10;;;;;;;5.54;78.41;96554.09;4321163;33;20313;-59
2022/12/27 06:55:47;;;;;;;0.10;0.10;;;;;;;5.38;79.81;96560.06;4329606;33;20284;-58
2022/12/27 06:58:12;;;;;;;0.20;0.20;;;;;;;5.64;79.26;96564.00;4327220;33;20186;-58
2022/12/27 07:00:38;;;;;;;0.23;0.23;;;;;;;5.34;80.41;96554.44;4329832;32;20182;-57
2022/12/27 07:03:04;;;;;;;0.00;0.00;;;;;;;5.74;79.32;96556.34;4332615;32;20212;-56
2022/12/27 07:05:31;;;;;;;0.00;0.00;;;;;;;5.44;80.75;96567.00;4338001;32;20274;-57
2022/12/27 07:07:56;;;;;;;0.20;0.20;;;;;;;5.40;81.09;96564.03;4353887;32;20193;-58
2022/12/27 07:10:22;;;;;;;0.37;0.37;;;;;;;5.50;81.28;96564.28;4357776;32;20409;-58
2022/12/27 07:12:47;;;;;;;0.53;0.53;;;;;;;5.49;81.31;96578.47;4321962;33;20200;-58
2022/12/27 07:15:13;;;;;;;0.30;0.30;;;;;;;5.51;81.68;96565.88;4322509;33;20182;-57
2022/12/27 07:17:38;;;;;;;1.20;0.40;;;;;;;5.56;81.75;96574.91;4326562;32;20181;-57
2022/12/27 07:20:05;;;;;;;0.00;0.00;;;;;;;5.58;81.60;96575.50;4346279;32;20203;-56
2022/12/27 07:22:31;;;;;;;0.20;0.20;;;;;;;5.50;81.59;96585.31;4334619;32;20216;-55
2022/12/27 07:24:56;;;;;;;0.20;0.20;;;;;;;5.46;82.66;96572.84;4326878;32;20286;-57
2022/12/27 07:27:22;;;;;;;0.20;0.20;;;;;;;5.48;82.71;96576.06;4320386;32;20185;-57
2022/12/27 07:29:48;;;;;;;0.00;0.00;;;;;;;5.51;82.04;96580.88;4343450;32;20178;-57
2022/12/27 07:32:13;;;;;;;0.43;0.17;;;;;;;5.57;82.00;96581.78;4342069;32;20170;-58
2022/12/27 07:34:38;;;;;;;0.00;0.00;;;;;;;5.41;82.27;96578.78;4336488;32;20182;-57
2022/12/27 07:37:04;;;;;;;0.10;0.10;;;;;;;5.52;81.95;96583.25;4357878;32;20307;-58
2022/12/27 07:39:29;;;;;;;0.20;0.20;;;;;;;5.42;82.71;96590.91;4328470;32;20204;-57
2022/12/27 07:41:55;;;;;;;0.27;0.27;;;;;;;5.48;82.62;96584.75;4315721;33;20220;-57
2022/12/27 07:44:20;;;;;;;0.07;0.07;;;;;;;5.48;82.33;96595.28;4334820;32;20275;-57
2022/12/27 07:46:45;;;;;;;0.47;0.47;;;;;;;5.27;83.74;96587.94;4341685;32;20169;-57
2022/12/27 07:49:11;;;;;;;0.30;0.30;;;;;;;5.42;83.65;96592.75;4338604;32;20197;-57
2022/12/27 07:51:36;;;;;;;1.90;0.73;;;;;;;5.35;84.10;96598.16;4343903;32;20193;-58
2022/12/27 07:54:02;;;;;;;1.03;0.43;;;;;;;5.21;84.67;96599.38;4334578;32;20196;-59
2022/12/27 07:56:28;;;;;;;0.20;0.20;;;;;;;5.15;85.08;96587.16;4340256;32;20208;-57
2022/12/27 07:58:55;;;;;;;0.47;0.47;;;;;;;5.31;84.65;96594.37;4338067;32;20186;-56
2022/12/27 08:01:23;;;;;;;0.37;0.33;;;;;;;5.33;84.73;96594.94;4340698;32;20178;-57
2022/12/27 08:03:49;;;;;;;0.17;0.17;;;;;;;5.26;84.81;96588.97;4348918;32;20269;-57
2022/12/27 08:06:27;;;;;;;0.10;0.10;;;;;;;5.40;84.81;96597.47;4359009;32;20331;-57
2022/12/27 08:08:54;;;;;;;0.70;0.70;;;;;;;5.31;85.15;96594.37;4324208;32;20188;-57
2022/12/27 08:11:19;;;;;;;0.10;0.10;;;;;;;5.16;85.37;96596.66;4330423;32;20288;-57
2022/12/27 08:13:45;;;;;;;0.10;0.10;;;;;;;5.13;85.22;96603.16;4343026;32;20297;-57
2022/12/27 08:16:17;;;;;;;0.17;0.17;;;;;;;5.40;84.12;96600.09;4330141;32;20181;-57
2022/12/27 08:18:42;;;;;;;0.77;0.33;;;;;;;5.10;85.00;96600.97;4343101;32;20201;-56
2022/12/27 08:21:08;;;;;;;0.70;0.37;;;;;;;5.17;84.21;96598.25;4333727;32;20311;-56
2022/12/27 08:23:33;;;;;;;0.13;0.13;;;;;;;5.21;83.24;96603.81;4346560;32;20185;-57
2022/12/27 08:25:58;;;;;;;0.10;0.10;;;;;;;5.24;83.17;96598.91;4345630;32;20182;-57
2022/12/27 08:28:24;;;;;;;0.17;0.17;;;;;;;5.34;82.12;96604.44;4338098;32;20178;-58
2022/12/27 08:30:49;;;;;;;0.30;0.30;;;;;;;5.39;82.14;96598.50;4313816;33;20185;-57
2022/12/27 08:33:15;;;;;;;0.00;0.00;;;;;;;5.43;81.48;96597.78;4325038;33;20217;-57
2022/12/27 08:35:42;;;;;;;0.10;0.10;;;;;;;5.43;80.63;96600.41;4316487;33;20240;-57
2022/12/27 08:38:08;;;;;;;0.10;0.10;;;;;;;5.34;80.47;96603.63;4321943;33;20182;-56
2022/12/27 08:40:37;;;;;;;1.20;0.23;;;;;;;5.25;79.30;96603.16;4325760;33;20292;-57
2022/12/27 08:43:03;;;;;;;0.27;0.27;;;;;;;5.48;79.21;96605.81;4328889;32;20182;-58
2022/12/27 08:45:28;;;;;;;0.20;0.20;;;;;;;5.58;78.92;96599.97;4311768;33;20317;-56
2022/12/27 08:47:58;;;;;;;0.37;0.37;;;;;;;5.53;78.13;96599.84;4327163;33;20211;-57
2022/12/27 08:50:23;;;;;;;1.10;0.30;;;;;;;5.41;78.85;96602.47;4324491;33;20224;-58
2022/12/27 08:52:48;;;;;;;0.00;0.00;;;;;;;5.34;78.69;96596.53;4310625;33;20274;-58
2022/12/27 08:55:14;;;;;;;0.00;0.00;;;;;;;5.49;78.66;96601.34;4314962;33;20243;-57
2022/12/27 08:57:39;;;;;;;0.30;0.30;;;;;;;5.64;78.94;96611.41;4325437;33;20177;-57
2022/12/27 09:00:05;;;;;;;0.30;0.30;;;;;;;5.75;78.98;96611.41;4342729;32;20267;-58
2022/12/27 09:02:31;;;;;;;0.20;0.20;;;;;;;5.88;79.27;96612.97;4357652;32;20191;-57
2022/12/27 09:04:56;;;;;;;0.20;0.20;;;;;;;5.99;80.12;96606.12;4330023;33;20289;-58
2022/12/27 09:07:21;;;;;;;1.77;0.30;;;;;;;5.89;80.70;96614.63;4343134;32;20336;-58
2022/12/27 09:09:47;;;;;;;0.30;0.30;;;;;;;6.09;80.60;96616.87;4316524;33;20303;-58
2022/12/27 09:12:12;;;;;;;0.00;0.00;;;;;;;5.99;81.21;96617.47;4327672;33;20220;-58
2022/12/27 09:14:37;;;;;;;0.10;0.10;;;;;;;5.99;81.60;96617.47;4320876;32;20181;-57
2022/12/27 09:17:04;;;;;;;3.50;0.73;;;;;;;5.99;82.02;96620.09;4327970;33;20233;-57
2022/12/27 09:19:30;;;;;;;0.30;0.30;;;;;;;5.96;82.49;96630.31;4330105;33;20246;-57
2022/12/27 09:21:56;;;;;;;0.30;0.30;;;;;;;6.03;82.64;96629.12;4328476;33;20353;-57
2022/12/27 09:24:21;;;;;;;0.10;0.10;;;;;;;5.77;83.77;96626.97;4327838;33;20358;-58
2022/12/27 09:26:47;;;;;;;0.00;0.00;;;;;;;6.00;83.36;96637.50;4328344;33;20228;-57
2022/12/27 09:29:12;;;;;;;0.10;0.10;;;;;;;6.04;82.63;96638.63;4323046;32;20193;-58
2022/12/27 09:31:37;;;;;;;0.03;0.03;;;;;;;6.12;82.36;96635.66;4339630;32;20182;-58
2022/12/27 09:34:03;;;;;;;0.10;0.10;;;;;;;6.02;81.88;96640.72;4330644;32;20178;-58
2022/12/27 09:36:29;;;;;;;0.17;0.17;;;;;;;6.27;81.16;96636.97;4322130;32;20182;-57
2022/12/27 09:38:56;;;;;;;0.10;0.10;;;;;;;6.29;79.75;96643.62;4334739;32;20236;-57
2022/12/27 09:41:45;;;;;;;0.07;0.07;;;;;;;6.08;80.42;96639.78;4337678;32;20289;-58
2022/12/27 09:44:25;;;;;;;0.10;0.10;;;;;;;6.15;80.28;96635.19;4343645;32;20273;-57
2022/12/27 09:47:11;;;;;;;0.00;0.00;;;;;;;6.26;80.90;96630.13;4344404;32;20308;-57
2022/12/27 09:49:41;;;;;;;0.10;0.10;;;;;;;6.23;79.93;96631.41;4331047;32;20282;-56
2022/12/27 09:52:40;;;;;;;0.30;0.17;;;;;;;6.42;74.39;96635.47;4327194;32;20306;-57
2022/12/27 09:55:16;;;;;;;0.00;0.00;;;;;;;6.20;73.21;96632.66;4306329;32;20356;-58
2022/12/27 09:57:44;;;;;;;0.20;0.20;;;;;;;6.08;73.52;96623.97;4332272;32;20293;-57
2022/12/27 10:00:16;;;;;;;0.10;0.10;;;;;;;6.14;72.68;96627.50;4336983;32;20332;-57
2022/12/27 10:02:43;;;;;;;0.20;0.20;;;;;;;6.26;72.08;96628.28;4345881;32;20273;-58
2022/12/27 10:05:18;;;;;;;0.00;0.00;;;;;;;6.19;72.32;96623.16;4330828;32;20269;-58
2022/12/27 10:08:01;;;;;;;0.10;0.10;;;;;;;6.26;72.57;96628.28;4336995;32;20285;-57
2022/12/27 10:10:39;;;;;;;0.10;0.10;;;;;;;6.28;72.44;96628.03;4337938;32;20380;-55
2022/12/27 10:13:32;;;;;;;0.30;0.30;;;;;;;6.36;71.30;96620.59;4326956;32;20285;-58
2022/12/27 10:16:19;;;;;;;0.10;0.10;;;;;;;6.46;69.57;96622.59;4324886;33;20297;-57
2022/12/27 10:19:25;;;;;;;0.10;0.10;;;;;;;6.39;68.77;96614.06;4314458;32;20290;-55
2022/12/27 10:22:29;;;;;;;0.00;0.00;;;;;;;6.49;69.08;96614.22;4316249;32;20269;-58
2022/12/27 10:24:59;;;;;;;0.10;0.10;;;;;;;6.44;69.67;96611.53;4326781;32;20277;-57
2022/12/27 10:27:27;;;;;;;0.10;0.10;;;;;;;6.34;68.82;96613.94;4324562;33;20282;-58
2022/12/27 10:29:56;;;;;;;1.70;1.23;;;;;;;6.34;69.67;96614.75;4327248;32;20380;-58
2022/12/27 10:32:21;;;;;;;0.10;0.10;;;;;;;6.38;69.00;96612.44;4326317;33;20294;-58
2022/12/27 10:34:58;;;;;;;0.07;0.07;;;;;;;6.45;69.68;96613.09;4323025;32;20317;-57
2022/12/27 10:37:26;;;;;;;0.00;0.00;;;;;;;6.39;68.26;96616.69;4329389;33;20193;-58
2022/12/27 10:39:51;;;;;;;0.00;0.00;;;;;;;6.65;68.51;96621.38;4340367;32;20282;-57
2022/12/27 10:42:41;;;;;;;0.13;0.13;;;;;;;6.71;67.35;96614.38;4337563;32;20282;-57
2022/12/27 10:45:35;;;;;;;0.10;0.10;;;;;;;6.52;66.98;96608.50;4343146;32;20260;-57
2022/12/27 10:48:09;;;;;;;0.00;0.00;;;;;;;6.58;68.65;96615.47;4341229;32;20345;-55
2022/12/27 10:50:35;;;;;;;0.00;0.00;;;;;;;6.50;68.03;96607.91;4331812;32;20293;-57
2022/12/27 10:53:00;;;;;;;0.00;0.00;;;;;;;6.50;66.52;96605.28;4336246;32;20313;-58
2022/12/27 10:55:34;;;;;;;0.10;0.10;;;;;;;6.60;65.74;96604.69;4339627;32;20189;-57
2022/12/27 10:58:18;;;;;;;3.37;0.63;;;;;;;6.75;65.79;96597.84;4326107;32;20221;-57
2022/12/27 11:00:55;;;;;;;0.13;0.13;;;;;;;6.70;65.67;96605.66;4342268;32;20273;-57
2022/12/27 11:03:20;;;;;;;0.00;0.00;;;;;;;6.92;62.96;96597.06;4328718;32;20316;-57
2022/12/27 11:05:58;;;;;;;2.40;0.50;;;;;;;6.94;64.57;96592.34;4325169;32;20290;-57
2022/12/27 11:08:23;;;;;;;0.00;0.00;;;;;;;6.79;63.78;96600.81;4336771;32;20177;-57
2022/12/27 11:10:52;;;;;;;0.00;0.00;;;;;;;6.96;61.53;96582.38;4337712;32;20289;-58
2022/12/27 11:13:18;;;;;;;0.30;0.30;;;;;;;6.92;62.63;96597.06;4341603;32;20228;-57
2022/12/27 11:15:53;;;;;;;0.20;0.20;;;;;;;7.04;63.15;96585.41;4344284;32;20400;-57
2022/12/27 11:18:20;;;;;;;0.00;0.00;;;;;;;7.04;61.97;96587.25;4344563;32;20186;-57
2022/12/27 11:20:46;;;;;;;0.13;0.13;;;;;;;6.80;62.58;96586.59;4343900;32;20309;-57
2022/12/27 11:23:16;;;;;;;0.20;0.20;;;;;;;6.88;63.72;96583.53;4344703;32;20281;-57
2022/12/27 11:25:55;;;;;;;0.00;0.00;;;;;;;7.04;63.16;96576.72;4330780;32;20182;-57
2022/12/27 11:28:40;;;;;;;0.03;0.03;;;;;;;7.05;62.61;96578.31;4326068;33;20283;-57
2022/12/27 11:31:08;;;;;;;0.70;0.07;;;;;;;7.06;61.12;96572.00;4313902;33;20325;-58
2022/12/27 11:33:40;;;;;;;0.00;0.00;;;;;;;7.17;61.65;96568.47;4327519;33;20401;-58
2022/12/27 11:36:08;;;;;;;0.00;0.00;;;;;;;7.16;62.13;96558.94;4326054;32;20349;-56
2022/12/27 11:38:36;;;;;;;0.00;0.00;;;;;;;7.27;62.19;96552.78;4332243;32;20274;-57
2022/12/27 11:41:27;;;;;;;0.10;0.10;;;;;;;7.30;63.50;96562.84;4342347;32;20335;-58
2022/12/27 11:44:14;;;;;;;0.00;0.00;;;;;;;7.46;61.72;96556.78;4343764;32;20365;-57
2022/12/27 11:46:47;;;;;;;0.03;0.03;;;;;;;7.49;61.76;96555.47;4330452;32;20332;-58
2022/12/27 11:49:20;;;;;;;0.37;0.37;;;;;;;7.43;61.61;96553.81;4327183;32;20290;-57
2022/12/27 11:51:49;;;;;;;0.10;0.10;;;;;;;7.35;63.65;96552.38;4342823;32;20281;-58
2022/12/27 11:54:40;;;;;;;0.13;0.13;;;;;;;7.40;62.78;96552.44;4326099;33;20285;-58
2022/12/27 11:57:31;;;;;;;0.27;0.27;;;;;;;7.50;63.86;96557.84;4326210;32;20396;-58
2022/12/27 12:00:18;;;;;;;0.00;0.00;;;;;;;7.65;65.89;96548.56;4317818;33;20294;-57
2022/12/27 12:03:00;;;;;;;0.47;0.20;;;;;;;7.69;65.07;96552.31;4324548;33;20304;-58
2022/12/27 12:05:42;;;;;;;0.00;0.00;;;;;;;7.72;65.74;96559.72;4329698;32;20348;-57
2022/12/27 12:08:19;;;;;;;0.13;0.13;;;;;;;7.80;67.22;96556.69;4339354;32;20360;-57
2022/12/27 12:10:52;;;;;;;0.67;0.33;;;;;;;7.86;65.89;96555.72;4340357;32;20285;-58
2022/12/27 12:13:17;;;;;;;0.07;0.07;;;;;;;7.79;65.86;96552.44;4334221;32;20294;-58
2022/12/27 12:15:59;;;;;;;0.30;0.10;;;;;;;7.77;65.89;96552.69;4336259;32;20374;-58
2022/12/27 12:18:53;;;;;;;0.00;0.00;;;;;;;7.67;65.73;96547.28;4339249;32;20185;-58
2022/12/27 12:21:35;;;;;;;0.47;0.47;;;;;;;7.71;64.87;96556.28;4329277;32;20373;-58
2022/12/27 12:24:22;;;;;;;0.07;0.07;;;;;;;7.66;64.65;96548.31;4343942;32;20365;-57
2022/12/27 12:26:50;;;;;;;0.00;0.00;;;;;;;7.66;64.33;96544.88;4330177;32;20285;-56
2022/12/27 12:29:29;;;;;;;0.00;0.00;;;;;;;7.51;65.69;96551.53;4342097;32;20351;-56
2022/12/27 12:32:25;;;;;;;0.10;0.10;;;;;;;7.49;66.36;96545.69;4340393;32;20287;-58
2022/12/27 12:35:15;;;;;;;0.37;0.33;;;;;;;7.48;65.95;96543.34;4334158;32;20283;-57
2022/12/27 12:38:09;;;;;;;0.40;0.40;;;;;;;7.44;66.34;96540.37;4330052;32;20277;-57
2022/12/27 12:41:07;;;;;;;1.27;0.50;;;;;;;7.57;66.52;96537.38;4328205;32;20309;-57
2022/12/27 12:43:50;;;;;;;0.40;0.40;;;;;;;7.44;66.72;96539.56;4341594;32;20304;-62
2022/12/27 12:46:34;;;;;;;0.10;0.10;;;;;;;7.44;66.77;96535.09;4331141;32;20329;-58
2022/12/27 12:49:14;;;;;;;0.13;0.13;;;;;;;7.49;66.60;96534.34;4342775;32;20285;-57
2022/12/27 12:51:55;;;;;;;0.43;0.43;;;;;;;7.30;66.72;96539.09;4315087;33;20282;-57
2022/12/27 12:54:40;;;;;;;0.20;0.20;;;;;;;7.37;68.19;96538.94;4326753;33;20277;-57
2022/12/27 12:57:22;;;;;;;0.20;0.20;;;;;;;7.27;67.51;96536.16;4325690;33;20301;-57
2022/12/27 13:00:08;;;;;;;0.00;0.00;;;;;;;7.35;68.23;96533.91;4313547;33;20297;-57
2022/12/27 13:02:55;;;;;;;0.93;0.63;;;;;;;7.27;68.69;96534.31;4307691;33;20304;-57
2022/12/27 13:06:04;;;;;;;0.37;0.33;;;;;;;7.40;68.95;96526.06;4327088;33;20288;-58
2022/12/27 13:08:47;;;;;;;0.40;0.40;;;;;;;7.53;68.29;96530.19;4255398;33;20372;-58
2022/12/27 13:11:33;;;;;;;3.40;0.33;;;;;;;7.44;69.51;96518.44;4325647;32;20369;-58
2022/12/27 13:14:21;;;;;;;0.53;0.43;;;;;;;7.58;69.95;96515.22;4325596;33;20271;-58
2022/12/27 13:17:00;;;;;;;0.53;0.20;;;;;;;7.56;68.87;96513.84;4313700;33;20312;-58
2022/12/27 13:20:05;;;;;;;0.00;0.00;;;;;;;7.58;69.75;96512.56;4322376;33;20271;-57
2022/12/27 13:22:55;;;;;;;0.30;0.30;;;;;;;7.64;69.78;96513.44;4330358;32;20320;-58
2022/12/27 13:25:26;;;;;;;0.40;0.40;;;;;;;7.58;70.11;96504.66;4341740;32;20341;-58
2022/12/27 13:28:15;;;;;;;0.00;0.00;;;;;;;7.66;70.20;96513.19;4328915;32;20270;-57
2022/12/27 13:30:45;;;;;;;0.20;0.20;;;;;;;7.72;70.33;96512.19;4337933;32;20300;-58
2022/12/27 13:33:24;;;;;;;0.10;0.10;;;;;;;7.63;72.30;96511.84;4322294;32;20370;-58
2022/12/27 13:36:04;;;;;;;0.40;0.40;;;;;;;7.60;71.68;96520.25;4344854;32;20361;-58
2022/12/27 13:38:42;;;;;;;0.40;0.40;;;;;;;7.50;72.09;96520.91;4346240;32;20275;-58